createdAt,value
2019-03-08T00:09:54.463Z,99.99
2019-03-08T00:20:55.365Z,99.99
2019-03-08T00:31:59.514Z,99.99
2019-03-08T00:42:59.539Z,99.99
2019-03-08T00:54:00.610Z,99.99
2019-03-08T01:05:00.367Z,99.99
2019-03-08T01:15:59.649Z,99.99
2019-03-08T01:27:01.499Z,99.99
2019-03-08T01:38:01.747Z,99.99
2019-03-08T01:49:04.066Z,99.99
2019-03-08T02:00:06.295Z,99.99
2019-03-08T02:11:07.372Z,99.99
2019-03-08T02:22:05.630Z,99.99
2019-03-08T02:33:04.910Z,99.99
2019-03-08T02:44:05.463Z,99.99
2019-03-08T02:55:06.929Z,99.99
2019-03-08T03:06:11.301Z,99.99
2019-03-08T03:17:09.137Z,99.99
2019-03-08T03:28:10.267Z,99.99
2019-03-08T03:39:14.892Z,99.99
2019-03-08T03:50:16.068Z,99.99
2019-03-08T04:01:16.177Z,99.99
2019-03-08T04:12:17.275Z,99.99
2019-03-08T04:23:18.831Z,99.99
2019-03-08T04:34:21.174Z,99.99
2019-03-08T04:45:22.506Z,99.99
2019-03-08T04:56:24.422Z,99.99
2019-03-08T05:07:29.288Z,99.99
2019-03-08T05:18:32.908Z,99.99
2019-03-08T05:29:32.253Z,99.99
2019-03-08T05:40:36.380Z,99.99
2019-03-08T05:51:34.268Z,99.99
2019-03-08T06:02:33.665Z,99.99
2019-03-08T06:13:36.665Z,99.99
2019-03-08T06:24:37.503Z,99.99
2019-03-08T06:35:42.497Z,99.99
2019-03-08T06:46:44.937Z,99.99
2019-03-08T06:57:49.677Z,99.99
2019-03-08T07:08:53.385Z,99.99
2019-03-08T07:19:55.193Z,99.99
2019-03-08T07:30:58.143Z,99.99
2019-03-08T07:41:58.073Z,99.99
2019-03-08T07:52:59.383Z,99.99
2019-03-08T08:04:02.885Z,99.99
2019-03-08T08:15:07.512Z,99.99
2019-03-08T08:26:08.559Z,99.99
2019-03-08T08:37:10.503Z,99.99
2019-03-08T08:48:09.851Z,99.99
2019-03-08T08:59:10.785Z,97.33
2019-03-08T09:10:10.007Z,99.50
2019-03-08T09:21:10.554Z,98.03
2019-03-08T09:32:09.341Z,99.69
2019-03-08T09:43:08.263Z,98.37
2019-03-08T09:54:04.640Z,99.84
2019-03-08T10:05:04.098Z,99.89
2019-03-08T10:16:05.252Z,99.99
2019-03-08T10:27:02.746Z,98.52
2019-03-08T10:38:05.417Z,97.06
2019-03-08T10:49:07.929Z,94.19
2019-03-08T11:00:08.849Z,92.35
2019-03-08T11:11:12.573Z,90.63
2019-03-08T11:22:11.889Z,85.90
2019-03-08T11:33:11.140Z,86.69
2019-03-08T11:44:06.849Z,85.92
2019-03-08T11:54:59.862Z,85.52
2019-03-08T12:06:03.880Z,81.53
2019-03-08T12:17:03.368Z,82.44
2019-03-08T12:28:05.133Z,85.60
2019-03-08T12:39:06.083Z,86.79
2019-03-08T12:50:06.739Z,87.46
2019-03-08T13:01:00.547Z,87.96
2019-03-08T13:12:00.517Z,82.54
2019-03-08T13:23:03.985Z,81.46
2019-03-08T13:34:05.210Z,83.32
2019-03-08T13:45:05.169Z,82.36
2019-03-08T13:56:09.256Z,82.36
2019-03-08T14:07:00.881Z,88.67
2019-03-08T14:17:58.759Z,88.10
2019-03-08T14:29:00.468Z,89.97
2019-03-08T14:39:57.994Z,91.97
2019-03-08T14:50:58.755Z,89.30
2019-03-08T15:01:58.792Z,90.50
2019-03-08T15:12:53.291Z,91.60
2019-03-08T15:23:54.484Z,91.55
2019-03-08T15:34:49.710Z,90.20
2019-03-08T15:45:45.983Z,93.30
2019-03-08T15:56:46.495Z,95.53
2019-03-08T16:07:43.804Z,96.18
2019-03-08T16:18:40.231Z,96.28
2019-03-08T16:29:44.009Z,95.57
2019-03-08T16:40:44.984Z,95.63
2019-03-08T16:51:43.384Z,96.38
2019-03-08T17:02:44.488Z,98.01
2019-03-08T17:13:43.581Z,99.22
2019-03-08T17:24:40.511Z,99.99
2019-03-08T17:35:38.861Z,99.99
2019-03-08T17:46:35.908Z,99.99
2019-03-08T17:57:35.590Z,99.99
2019-03-08T18:08:34.473Z,99.99
2019-03-08T18:19:32.043Z,99.99
2019-03-08T18:30:37.187Z,99.99
2019-03-08T18:41:40.525Z,99.99
2019-03-08T18:52:42.040Z,99.99
2019-03-08T19:03:45.394Z,99.99
2019-03-08T19:14:47.416Z,99.99
2019-03-08T19:25:42.771Z,99.99
2019-03-08T19:36:38.953Z,99.99
2019-03-08T19:47:37.854Z,99.99
2019-03-08T19:58:34.458Z,99.99
2019-03-08T20:09:33.907Z,99.99
2019-03-08T20:20:31.855Z,99.99
2019-03-08T20:31:31.551Z,99.99
2019-03-08T20:42:31.891Z,99.99
2019-03-08T20:53:27.068Z,99.99
2019-03-08T21:04:23.254Z,99.99
2019-03-08T21:15:25.390Z,99.99
2019-03-08T21:26:21.668Z,99.99
2019-03-08T21:37:24.475Z,99.99
2019-03-08T21:48:23.411Z,99.99
2019-03-08T21:59:21.281Z,99.99
2019-03-08T22:10:25.121Z,99.99
2019-03-08T22:21:25.408Z,99.99
2019-03-08T22:32:29.480Z,99.99
2019-03-08T22:43:31.233Z,99.99
2019-03-08T22:54:29.108Z,99.99
2019-03-08T23:05:29.493Z,99.99
2019-03-08T23:16:32.291Z,99.99
2019-03-08T23:27:36.862Z,99.99
2019-03-08T23:38:40.722Z,99.99
2019-03-08T23:49:38.511Z,99.99
